createdAt,value
2023-04-15T00:01:02.763Z,101065.06
2023-04-15T00:03:29.962Z,101064.22
2023-04-15T00:05:58.491Z,101076.09
2023-04-15T00:08:25.528Z,101069.28
2023-04-15T00:10:52.071Z,101074.38
2023-04-15T00:13:18.820Z,101066.75
2023-04-15T00:15:45.371Z,101080.31
2023-04-15T00:18:11.990Z,101075.19
2023-04-15T00:20:38.594Z,101074.34
2023-04-15T00:23:05.724Z,101066.69
2023-04-15T00:25:32.457Z,101068.41
2023-04-15T00:27:59.066Z,101068.41
2023-04-15T00:30:26.635Z,101066.72
2023-04-15T00:32:53.805Z,101071.81
2023-04-15T00:35:20.795Z,101070.97
2023-04-15T00:37:47.442Z,101069.31
2023-04-15T00:40:14.143Z,101072.72
2023-04-15T00:42:41.188Z,101072.75
2023-04-15T00:45:08.828Z,101077.94
2023-04-15T00:47:37.758Z,101076.34
2023-04-15T00:50:05.130Z,101079.00
2023-04-15T00:52:32.827Z,101079.91
2023-04-15T00:55:00.005Z,101080.84
2023-04-15T00:57:28.559Z,101080.16
2023-04-15T00:59:56.915Z,101092.94
2023-04-15T01:02:24.121Z,101086.22
2023-04-15T01:04:51.380Z,101092.28
2023-04-15T01:07:18.018Z,101089.84
2023-04-15T01:09:45.728Z,101085.63
2023-04-15T01:12:15.559Z,101089.06
2023-04-15T01:14:42.430Z,101091.59
2023-04-15T01:17:09.091Z,101089.16
2023-04-15T01:19:37.147Z,101088.38
2023-04-15T01:22:05.324Z,101084.13
2023-04-15T01:24:33.239Z,101087.50
2023-04-15T01:26:59.997Z,101089.19
2023-04-15T01:29:27.475Z,101083.28
2023-04-15T01:31:56.201Z,101081.59
2023-04-15T01:34:23.496Z,101080.75
2023-04-15T01:36:50.134Z,101079.06
2023-04-15T01:39:17.014Z,101088.38
2023-04-15T01:41:43.950Z,101090.94
2023-04-15T01:44:10.521Z,101082.47
2023-04-15T01:46:37.197Z,101091.00
2023-04-15T01:49:03.906Z,101088.47
2023-04-15T01:51:30.505Z,101088.44
2023-04-15T01:53:57.120Z,101085.06
2023-04-15T01:56:26.710Z,101091.03
2023-04-15T01:58:53.673Z,101090.19
2023-04-15T02:01:20.850Z,101084.28
2023-04-15T02:03:48.382Z,101090.28
2023-04-15T02:06:15.240Z,101095.38
2023-04-15T02:08:41.799Z,101092.00
2023-04-15T02:11:08.509Z,101096.28
2023-04-15T02:13:35.279Z,101093.75
2023-04-15T02:16:01.886Z,101098.88
2023-04-15T02:18:28.667Z,101098.06
2023-04-15T02:20:57.432Z,101102.31
2023-04-15T02:23:24.474Z,101103.22
2023-04-15T02:25:53.831Z,101101.53
2023-04-15T02:28:21.221Z,101106.66
2023-04-15T02:30:50.954Z,101110.91
2023-04-15T02:33:18.071Z,101110.94
2023-04-15T02:35:45.546Z,101106.75
2023-04-15T02:38:12.440Z,101122.88
2023-04-15T02:40:39.009Z,101127.09
2023-04-15T02:43:07.124Z,101126.28
2023-04-15T02:45:33.970Z,101130.53
2023-04-15T02:48:04.056Z,101128.84
2023-04-15T02:50:31.712Z,101127.19
2023-04-15T02:52:58.475Z,101127.16
2023-04-15T02:55:25.072Z,101135.63
2023-04-15T02:57:51.632Z,101137.38
2023-04-15T03:00:18.439Z,101136.53
2023-04-15T03:02:47.074Z,101135.72
2023-04-15T03:05:15.071Z,101134.88
2023-04-15T03:07:41.748Z,101136.59
2023-04-15T03:10:08.990Z,101140.00
2023-04-15T03:12:35.758Z,101135.75
2023-04-15T03:15:02.316Z,101145.94
2023-04-15T03:17:28.926Z,101145.13
2023-04-15T03:19:55.665Z,101148.50
2023-04-15T03:22:22.411Z,101150.22
2023-04-15T03:24:48.960Z,101155.31
2023-04-15T03:27:15.432Z,101154.47
2023-04-15T03:29:41.921Z,101148.56
2023-04-15T03:32:08.569Z,101157.03
2023-04-15T03:34:35.083Z,101166.34
2023-04-15T03:37:01.702Z,101153.69
2023-04-15T03:39:28.309Z,101154.53
2023-04-15T03:41:54.849Z,101161.28
2023-04-15T03:44:21.555Z,101159.56
2023-04-15T03:46:48.224Z,101169.78
2023-04-15T03:49:14.814Z,101169.78
2023-04-15T03:51:41.678Z,101169.78
2023-04-15T03:54:08.220Z,101176.56
2023-04-15T03:56:34.694Z,101182.50
2023-04-15T03:59:01.441Z,101178.25
2023-04-15T04:01:28.184Z,101178.25
2023-04-15T04:03:54.827Z,101179.94
2023-04-15T04:06:21.728Z,101185.03
2023-04-15T04:08:48.331Z,101193.50
2023-04-15T04:11:14.922Z,101196.03
2023-04-15T04:13:41.905Z,101201.97
2023-04-15T04:16:08.656Z,101202.81
2023-04-15T04:18:35.448Z,101196.88
2023-04-15T04:21:02.098Z,101203.66
2023-04-15T04:23:28.756Z,101197.75
2023-04-15T04:25:55.387Z,101206.22
2023-04-15T04:28:22.310Z,101217.19
2023-04-15T04:30:48.945Z,101217.19
2023-04-15T04:33:15.727Z,101218.06
2023-04-15T04:35:42.276Z,101221.44
2023-04-15T04:38:08.852Z,101224.78
2023-04-15T04:40:35.706Z,101229.03
2023-04-15T04:43:02.355Z,101231.59
2023-04-15T04:45:28.868Z,101244.25
2023-04-15T04:47:55.658Z,101249.31
2023-04-15T04:50:22.190Z,101256.09
2023-04-15T04:52:49.009Z,101256.94
2023-04-15T04:55:16.016Z,101261.13
2023-04-15T04:57:42.652Z,101265.34
2023-04-15T05:00:09.727Z,101262.81
2023-04-15T05:02:36.970Z,101263.66
2023-04-15T05:05:03.819Z,101269.56
2023-04-15T05:07:30.546Z,101265.34
2023-04-15T05:09:57.194Z,101279.72
2023-04-15T05:12:23.783Z,101286.47
2023-04-15T05:14:50.261Z,101282.25
2023-04-15T05:17:16.862Z,101283.91
2023-04-15T05:19:43.352Z,101291.56
2023-04-15T05:22:10.020Z,101295.78
2023-04-15T05:24:36.677Z,101300.03
2023-04-15T05:27:03.707Z,101301.72
2023-04-15T05:29:30.741Z,101304.25
2023-04-15T05:31:57.476Z,101316.13
2023-04-15T05:34:23.999Z,101310.22
2023-04-15T05:36:50.612Z,101317.00
2023-04-15T05:39:17.155Z,101318.72
2023-04-15T05:41:43.796Z,101320.41
2023-04-15T05:44:10.318Z,101326.34
2023-04-15T05:46:37.267Z,101331.41
2023-04-15T05:49:04.156Z,101333.97
2023-04-15T05:51:31.206Z,101337.34
2023-04-15T05:53:57.708Z,101340.75
2023-04-15T05:56:24.924Z,101341.59
2023-04-15T05:58:53.347Z,101344.97
2023-04-15T06:01:20.740Z,101351.72
2023-04-15T06:03:47.573Z,101349.22
2023-04-15T06:06:15.528Z,101352.59
2023-04-15T06:08:42.104Z,101356.81
2023-04-15T06:11:08.672Z,101364.44
2023-04-15T06:13:35.340Z,101368.66
2023-04-15T06:16:02.265Z,101371.22
2023-04-15T06:18:28.758Z,101374.63
2023-04-15T06:20:55.354Z,101379.69
2023-04-15T06:23:22.029Z,101378.81
2023-04-15T06:25:48.931Z,101384.75
2023-04-15T06:28:15.734Z,101388.13
2023-04-15T06:30:43.004Z,101388.13
2023-04-15T06:33:10.795Z,101395.75
2023-04-15T06:35:37.894Z,101400.84
2023-04-15T06:38:04.463Z,101401.69
2023-04-15T06:40:33.158Z,101401.69
2023-04-15T06:42:59.780Z,101401.66
2023-04-15T06:45:26.691Z,101413.47
2023-04-15T06:47:53.729Z,101421.09
2023-04-15T06:50:20.346Z,101424.47
2023-04-15T06:52:47.088Z,101427.84
2023-04-15T06:55:14.774Z,101437.97
2023-04-15T06:57:41.607Z,101433.72
2023-04-15T07:00:08.740Z,101437.03
2023-04-15T07:02:35.770Z,101441.22
2023-04-15T07:05:02.449Z,101448.81
2023-04-15T07:07:29.045Z,101448.72
2023-04-15T07:09:55.778Z,101455.41
2023-04-15T07:12:22.379Z,101452.78
2023-04-15T07:14:49.678Z,101460.34
2023-04-15T07:17:16.630Z,101458.59
2023-04-15T07:19:43.228Z,101467.91
2023-04-15T07:22:10.094Z,101467.03
2023-04-15T07:24:36.885Z,101472.94
2023-04-15T07:27:04.375Z,101477.94
2023-04-15T07:29:31.471Z,101475.34
2023-04-15T07:31:58.159Z,101476.13
2023-04-15T07:34:24.833Z,101483.69
2023-04-15T07:36:52.092Z,101490.44
2023-04-15T07:39:19.148Z,101492.88
2023-04-15T07:41:46.566Z,101487.66
2023-04-15T07:44:13.360Z,101491.78
2023-04-15T07:46:39.963Z,101488.22
2023-04-15T07:49:07.837Z,101494.88
2023-04-15T07:51:34.528Z,101493.00
2023-04-15T07:54:00.958Z,101488.59
2023-04-15T07:56:27.848Z,101501.22
2023-04-15T07:58:54.343Z,101497.63
2023-04-15T08:01:21.194Z,101506.00
2023-04-15T08:03:48.586Z,101505.97
2023-04-15T08:06:15.243Z,101499.00
2023-04-15T08:08:41.812Z,101511.69
2023-04-15T08:11:09.178Z,101518.41
2023-04-15T08:13:36.093Z,101519.09
2023-04-15T08:16:19.022Z,101524.97
2023-04-15T08:18:47.341Z,101524.06
2023-04-15T08:21:14.029Z,101523.22
2023-04-15T08:23:41.061Z,101530.06
2023-04-15T08:26:08.746Z,101523.16
2023-04-15T08:28:36.271Z,101528.97
2023-04-15T08:31:02.801Z,101528.84
2023-04-15T08:33:29.490Z,101529.50
2023-04-15T08:35:56.079Z,101528.56
2023-04-15T08:38:22.847Z,101539.56
2023-04-15T08:40:49.692Z,101542.03
2023-04-15T08:43:26.548Z,101544.41
2023-04-15T08:45:53.609Z,101551.38
2023-04-15T08:48:20.945Z,101557.47
2023-04-15T08:50:48.827Z,101562.63
2023-04-15T08:53:16.430Z,101569.41
2023-04-15T08:55:48.303Z,101571.19
2023-04-15T08:58:15.749Z,101574.59
2023-04-15T09:00:42.622Z,101583.13
2023-04-15T09:03:09.720Z,101582.13
2023-04-15T09:05:37.862Z,101581.91
2023-04-15T09:08:05.756Z,101580.00
2023-04-15T09:10:33.540Z,101583.25
2023-04-15T09:13:02.209Z,101595.81
2023-04-15T09:15:29.938Z,101596.25
2023-04-15T09:17:57.136Z,101605.56
2023-04-15T09:20:24.167Z,101608.13
2023-04-15T09:22:52.118Z,101600.31
2023-04-15T09:25:21.523Z,101613.09
2023-04-15T09:27:56.852Z,101611.22
2023-04-15T09:30:23.930Z,101613.63
2023-04-15T09:32:56.733Z,101625.63
2023-04-15T09:35:24.495Z,101632.41
2023-04-15T09:37:51.431Z,101622.78
2023-04-15T09:40:44.943Z,101622.88
2023-04-15T09:43:14.730Z,101628.75
2023-04-15T09:45:51.682Z,101629.50
2023-04-15T09:48:27.374Z,101627.72
2023-04-15T09:50:54.897Z,101635.28
2023-04-15T09:53:23.677Z,101628.25
2023-04-15T09:55:54.775Z,101633.09
2023-04-15T09:58:29.039Z,101628.00
2023-04-15T10:00:57.603Z,101629.69
2023-04-15T10:03:29.345Z,101628.63
2023-04-15T10:05:57.662Z,101633.38
2023-04-15T10:08:27.054Z,101634.66
2023-04-15T10:10:54.211Z,101646.97
2023-04-15T10:13:25.675Z,101647.59
2023-04-15T10:16:05.568Z,101658.63
2023-04-15T10:18:35.638Z,101647.50
2023-04-15T10:21:02.533Z,101641.78
2023-04-15T10:23:29.330Z,101647.38
2023-04-15T10:25:56.891Z,101656.81
2023-04-15T10:28:23.241Z,101646.13
2023-04-15T10:30:50.050Z,101663.03
2023-04-15T10:33:24.519Z,101651.50
2023-04-15T10:35:52.627Z,101649.31
2023-04-15T10:38:42.653Z,101661.31
2023-04-15T10:41:27.958Z,101655.28
2023-04-15T10:43:56.865Z,101661.31
2023-04-15T10:46:44.903Z,101669.53
2023-04-15T10:49:16.993Z,101672.09
2023-04-15T10:51:45.938Z,101669.38
2023-04-15T10:54:16.318Z,101676.19
2023-04-15T10:56:44.613Z,101673.53
2023-04-15T10:59:11.534Z,101667.03
2023-04-15T11:01:51.802Z,101688.75
2023-04-15T11:04:57.659Z,101684.13
2023-04-15T11:07:38.576Z,101687.66
2023-04-15T11:10:31.344Z,101694.13
2023-04-15T11:12:59.816Z,101678.78
2023-04-15T11:15:32.167Z,101688.53
2023-04-15T11:18:08.335Z,101682.09
2023-04-15T11:20:35.531Z,101689.47
2023-04-15T11:23:13.419Z,101695.47
2023-04-15T11:25:43.171Z,101695.41
2023-04-15T11:28:11.366Z,101692.09
2023-04-15T11:30:39.912Z,101688.38
2023-04-15T11:33:09.284Z,101688.00
2023-04-15T11:35:36.187Z,101691.59
2023-04-15T11:38:09.124Z,101694.97
2023-04-15T11:40:36.297Z,101701.53
2023-04-15T11:43:09.812Z,101689.00
2023-04-15T11:45:38.599Z,101698.75
2023-04-15T11:48:10.500Z,101706.53
2023-04-15T11:50:40.595Z,101694.63
2023-04-15T11:53:09.510Z,101708.72
2023-04-15T11:55:50.926Z,101713.94
2023-04-15T11:58:23.362Z,101712.59
2023-04-15T12:01:07.924Z,101726.38
2023-04-15T12:03:47.144Z,101725.38
2023-04-15T12:06:20.990Z,101713.91
2023-04-15T12:09:02.891Z,101728.00
2023-04-15T12:11:31.018Z,101736.81
2023-04-15T12:13:59.440Z,101735.97
2023-04-15T12:16:28.002Z,101742.81
2023-04-15T12:18:57.699Z,101743.88
2023-04-15T12:21:33.685Z,101753.69
2023-04-15T12:24:03.554Z,101743.00
2023-04-15T12:26:33.633Z,101759.75
2023-04-15T12:29:10.962Z,101745.56
2023-04-15T12:31:38.022Z,101740.84
2023-04-15T12:34:08.532Z,101754.44
2023-04-15T12:36:38.035Z,101760.47
2023-04-15T12:39:05.391Z,101758.91
2023-04-15T12:41:33.108Z,101770.13
2023-04-15T12:43:59.766Z,101768.41
2023-04-15T12:46:27.236Z,101770.84
2023-04-15T12:48:53.887Z,101772.63
2023-04-15T12:51:23.194Z,101781.66
2023-04-15T12:53:50.115Z,101789.88
2023-04-15T12:56:17.155Z,101775.09
2023-04-15T12:58:43.639Z,101776.03
2023-04-15T13:01:11.285Z,101797.59
2023-04-15T13:03:39.018Z,101808.09
2023-04-15T13:06:06.133Z,101792.91
2023-04-15T13:08:33.070Z,101803.59
2023-04-15T13:10:59.686Z,101813.06
2023-04-15T13:13:27.353Z,101799.59
2023-04-15T13:15:53.894Z,101822.41
2023-04-15T13:18:20.569Z,101817.34
2023-04-15T13:20:47.123Z,101819.41
2023-04-15T13:23:13.603Z,101822.53
2023-04-15T13:25:40.040Z,101819.25
2023-04-15T13:28:06.667Z,101823.63
2023-04-15T13:30:33.210Z,101822.53
2023-04-15T13:32:59.883Z,101836.78
2023-04-15T13:35:26.526Z,101834.97
2023-04-15T13:37:55.168Z,101838.59
2023-04-15T13:40:21.901Z,101852.97
2023-04-15T13:42:48.720Z,101852.00
2023-04-15T13:45:16.208Z,101847.28
2023-04-15T13:47:42.888Z,101849.00
2023-04-15T13:50:10.072Z,101860.09
2023-04-15T13:52:36.589Z,101860.41
2023-04-15T13:55:08.381Z,101868.13
2023-04-15T13:57:46.719Z,101870.25
2023-04-15T14:00:14.060Z,101864.59
2023-04-15T14:02:42.326Z,101880.13
2023-04-15T14:05:09.501Z,101867.41
2023-04-15T14:07:36.598Z,101876.00
2023-04-15T14:10:03.407Z,101876.13
2023-04-15T14:12:29.890Z,101886.63
2023-04-15T14:14:56.461Z,101887.00
2023-04-15T14:17:23.064Z,101883.63
2023-04-15T14:19:49.547Z,101897.06
2023-04-15T14:22:16.362Z,101895.41
2023-04-15T14:24:42.851Z,101901.13
2023-04-15T14:27:09.570Z,101915.28
2023-04-15T14:29:36.165Z,101922.41
2023-04-15T14:32:11.392Z,101918.41
2023-04-15T14:34:39.021Z,101928.72
2023-04-15T14:37:05.608Z,101930.56
2023-04-15T14:39:32.179Z,101936.69
2023-04-15T14:41:59.011Z,101930.72
2023-04-15T14:44:25.755Z,101939.16
2023-04-15T14:46:52.317Z,101940.72
2023-04-15T14:49:19.999Z,101945.81
2023-04-15T14:51:46.633Z,101936.47
2023-04-15T14:54:13.174Z,101940.66
2023-04-15T14:56:39.744Z,101953.75
2023-04-15T14:59:06.333Z,101965.00
2023-04-15T15:01:34.290Z,101973.72
2023-04-15T15:04:01.387Z,101980.66
2023-04-15T15:06:28.013Z,101973.88
2023-04-15T15:08:54.456Z,101976.44
2023-04-15T15:11:21.073Z,101988.28
2023-04-15T15:13:47.558Z,101989.88
2023-04-15T15:16:14.737Z,101971.03
2023-04-15T15:18:41.427Z,101981.38
2023-04-15T15:21:07.954Z,101985.03
2023-04-15T15:23:34.495Z,101991.22
2023-04-15T15:26:01.303Z,101989.50
2023-04-15T15:28:27.868Z,101996.41
2023-04-15T15:30:54.906Z,101997.38
2023-04-15T15:33:21.644Z,102000.81
2023-04-15T15:35:48.161Z,102000.91
2023-04-15T15:38:14.970Z,102007.00
2023-04-15T15:40:41.661Z,102003.59
2023-04-15T15:43:08.404Z,102007.06
2023-04-15T15:45:35.608Z,102011.41
2023-04-15T15:48:02.226Z,102019.94
2023-04-15T15:50:28.874Z,102006.41
2023-04-15T15:52:55.744Z,102017.56
2023-04-15T15:55:23.454Z,102021.88
2023-04-15T15:57:50.054Z,102016.78
2023-04-15T16:00:16.708Z,102017.59
2023-04-15T16:05:13.365Z,102018.63
2023-04-15T16:07:39.918Z,102024.63
2023-04-15T16:10:07.098Z,102041.69
2023-04-15T16:12:35.035Z,102047.63
2023-04-15T16:15:01.851Z,102045.00
2023-04-15T16:17:28.417Z,102055.31
2023-04-15T16:20:00.100Z,102054.50
2023-04-15T16:22:27.731Z,102060.59
2023-04-15T16:24:54.335Z,102057.25
2023-04-15T16:27:21.004Z,102061.59
2023-04-15T16:29:47.759Z,102069.28
2023-04-15T16:32:14.469Z,102055.66
2023-04-15T16:34:41.382Z,102072.69
2023-04-15T16:37:07.963Z,102072.69
2023-04-15T16:39:34.575Z,102081.22
2023-04-15T16:42:02.619Z,102093.16
2023-04-15T16:44:30.080Z,102079.59
2023-04-15T16:46:56.832Z,102084.72
2023-04-15T16:49:23.379Z,102085.59
2023-04-15T16:51:49.860Z,102089.00
2023-04-15T16:54:16.429Z,102089.03
2023-04-15T16:56:42.958Z,102095.88
2023-04-15T16:59:09.512Z,102092.47
2023-04-15T17:01:39.597Z,102102.72
2023-04-15T17:04:07.332Z,102110.38
2023-04-15T17:06:33.975Z,102104.44
2023-04-15T17:09:00.630Z,102103.56
2023-04-15T17:11:28.219Z,102109.50
2023-04-15T17:13:54.765Z,102103.53
2023-04-15T17:16:21.656Z,102114.63
2023-04-15T17:18:50.214Z,102115.50
2023-04-15T17:21:17.593Z,102112.09
2023-04-15T17:23:44.288Z,102116.34
2023-04-15T17:26:11.185Z,102114.66
2023-04-15T17:28:38.059Z,102126.56
2023-04-15T17:31:05.089Z,102130.81
2023-04-15T17:34:00.317Z,102127.44
2023-04-15T17:36:18.329Z,102137.66
2023-04-15T17:38:45.559Z,102130.88
2023-04-15T17:41:12.222Z,102127.47
2023-04-15T17:43:38.788Z,102129.16
2023-04-15T17:46:07.227Z,102131.75
2023-04-15T17:48:34.326Z,102135.97
2023-04-15T17:51:01.031Z,102137.69
2023-04-15T17:53:27.693Z,102149.63
2023-04-15T17:55:54.463Z,102152.19
2023-04-15T17:58:21.297Z,102155.59
2023-04-15T18:00:48.338Z,102169.22
2023-04-15T18:03:15.532Z,102158.13
2023-04-15T18:05:42.804Z,102165.81
2023-04-15T18:08:09.697Z,102164.09
2023-04-15T18:10:36.983Z,102165.81
2023-04-15T18:13:04.761Z,102170.94
2023-04-15T18:15:31.697Z,102175.19
2023-04-15T18:17:59.124Z,102178.59
2023-04-15T18:20:25.777Z,102170.94
2023-04-15T18:22:52.698Z,102172.66
2023-04-15T18:25:19.380Z,102177.75
2023-04-15T18:27:45.940Z,102176.06
2023-04-15T18:30:12.892Z,102182.00
2023-04-15T18:32:39.638Z,102189.69
2023-04-15T18:35:06.896Z,102191.38
2023-04-15T18:37:33.514Z,102188.84
2023-04-15T18:40:00.053Z,102194.78
2023-04-15T18:42:26.837Z,102189.69
2023-04-15T18:44:53.901Z,102205.84
2023-04-15T18:47:20.658Z,102209.25
2023-04-15T18:49:47.200Z,102204.16
2023-04-15T18:52:13.939Z,102207.56
2023-04-15T18:54:40.433Z,102213.50
2023-04-15T18:57:07.026Z,102221.19
2023-04-15T18:59:33.927Z,102218.63
2023-04-15T19:02:01.338Z,102230.53
2023-04-15T19:04:29.494Z,102227.13
2023-04-15T19:06:56.453Z,102233.94
2023-04-15T19:09:23.051Z,102243.31
2023-04-15T19:11:49.692Z,102240.72
2023-04-15T19:14:17.756Z,102238.19
2023-04-15T19:16:44.444Z,102235.63
2023-04-15T19:19:14.496Z,102233.06
2023-04-15T19:21:41.682Z,102241.56
2023-04-15T19:24:08.290Z,102233.88
2023-04-15T19:26:34.831Z,102239.00
2023-04-15T19:29:01.373Z,102244.94
2023-04-15T19:31:27.952Z,102241.53
2023-04-15T19:33:54.461Z,102241.56
2023-04-15T19:36:21.384Z,102249.22
2023-04-15T19:38:47.946Z,102246.66
2023-04-15T19:41:15.536Z,102246.66
2023-04-15T19:43:42.123Z,102254.31
2023-04-15T19:46:08.795Z,102260.25
2023-04-15T19:48:35.431Z,102250.88
2023-04-15T19:51:02.007Z,102259.38
2023-04-15T19:53:29.268Z,102259.38
2023-04-15T19:55:56.011Z,102268.75
2023-04-15T19:58:22.546Z,102262.81
2023-04-15T20:00:49.116Z,102265.38
2023-04-15T20:03:16.245Z,102260.22
2023-04-15T20:05:42.830Z,102268.75
2023-04-15T20:08:09.351Z,102267.91
2023-04-15T20:10:37.023Z,102267.03
2023-04-15T20:13:03.687Z,102266.22
2023-04-15T20:15:30.777Z,102272.16
2023-04-15T20:17:57.516Z,102263.66
2023-04-15T20:20:24.059Z,102269.59
2023-04-15T20:22:51.049Z,102266.22
2023-04-15T20:25:17.675Z,102264.50
2023-04-15T20:27:44.497Z,102267.88
2023-04-15T20:30:11.299Z,102274.72
2023-04-15T20:32:38.678Z,102275.53
2023-04-15T20:35:06.974Z,102279.81
2023-04-15T20:37:33.846Z,102273.88
2023-04-15T20:40:01.236Z,102267.03
2023-04-15T20:42:33.613Z,102270.47
2023-04-15T20:45:00.581Z,102268.75
2023-04-15T20:47:27.190Z,102273.00
2023-04-15T20:49:53.902Z,102273.88
2023-04-15T20:52:20.782Z,102278.97
2023-04-15T20:54:47.288Z,102277.25
2023-04-15T20:57:13.760Z,102270.47
2023-04-15T20:59:40.381Z,102284.06
2023-04-15T21:02:07.156Z,102275.56
2023-04-15T21:04:33.833Z,102284.91
2023-04-15T21:07:00.354Z,102295.13
2023-04-15T21:09:26.860Z,102293.41
2023-04-15T21:12:01.067Z,102288.31
2023-04-15T21:14:28.634Z,102288.31
2023-04-15T21:16:56.835Z,102292.53
2023-04-15T21:19:23.352Z,102289.16
2023-04-15T21:21:50.031Z,102292.53
2023-04-15T21:24:16.608Z,102293.38
2023-04-15T21:26:43.120Z,102289.13
2023-04-15T21:29:11.612Z,102293.38
2023-04-15T21:31:38.879Z,102298.47
2023-04-15T21:34:05.449Z,102303.59
2023-04-15T21:36:31.955Z,102308.69
2023-04-15T21:38:58.538Z,102308.69
2023-04-15T21:41:25.287Z,102303.56
2023-04-15T21:43:51.942Z,102301.00
2023-04-15T21:46:22.697Z,102301.88
2023-04-15T21:48:52.729Z,102305.25
2023-04-15T21:51:19.304Z,102301.84
2023-04-15T21:53:45.924Z,102309.50
2023-04-15T21:56:12.484Z,102305.22
2023-04-15T21:58:39.056Z,102309.50
2023-04-15T22:01:05.697Z,102305.25
2023-04-15T22:03:34.251Z,102323.97
2023-04-15T22:06:02.354Z,102326.50
2023-04-15T22:08:28.957Z,102328.22
2023-04-15T22:10:55.595Z,102329.06
2023-04-15T22:13:22.224Z,102326.56
2023-04-15T22:15:48.836Z,102326.56
2023-04-15T22:18:15.550Z,102330.78
2023-04-15T22:20:42.192Z,102335.06
2023-04-15T22:23:09.799Z,102333.34
2023-04-15T22:25:37.523Z,102325.69
2023-04-15T22:28:06.898Z,102329.94
2023-04-15T22:30:37.887Z,102325.69
2023-04-15T22:33:05.749Z,102332.50
2023-04-15T22:35:32.528Z,102336.75
2023-04-15T22:37:59.023Z,102335.06
2023-04-15T22:40:25.735Z,102337.59
2023-04-15T22:42:52.410Z,102333.38
2023-04-15T22:45:18.939Z,102338.47
2023-04-15T22:47:45.698Z,102339.34
2023-04-15T22:50:12.774Z,102341.03
2023-04-15T22:52:39.408Z,102339.34
2023-04-15T22:55:06.801Z,102335.97
2023-04-15T22:57:33.345Z,102351.28
2023-04-15T23:00:00.212Z,102355.53
2023-04-15T23:02:27.184Z,102358.09
2023-04-15T23:04:53.995Z,102347.88
2023-04-15T23:07:20.650Z,102358.94
2023-04-15T23:09:47.188Z,102355.53
2023-04-15T23:12:14.015Z,102363.19
2023-04-15T23:14:40.492Z,102355.53
2023-04-15T23:17:07.097Z,102361.50
2023-04-15T23:19:33.589Z,102366.59
2023-04-15T23:22:00.354Z,102374.25
2023-04-15T23:24:26.813Z,102368.28
2023-04-15T23:26:53.330Z,102375.97
2023-04-15T23:29:19.843Z,102372.53
2023-04-15T23:31:46.404Z,102369.13
2023-04-15T23:34:12.831Z,102369.97
2023-04-15T23:36:39.323Z,102373.38
2023-04-15T23:39:05.926Z,102375.91
2023-04-15T23:41:32.437Z,102374.22
2023-04-15T23:43:58.950Z,102381.84
2023-04-15T23:46:25.558Z,102383.53
2023-04-15T23:48:52.037Z,102383.53
2023-04-15T23:51:18.508Z,102380.16
2023-04-15T23:53:45.059Z,102386.97
2023-04-15T23:56:11.566Z,102377.59
2023-04-15T23:58:38.034Z,102384.41
